Airfield :
LOGIN :

Register | Disclaimer

   EN    FR    IT 

 










Legend :    VFR   Marginal VFR   IFR   Intensive IFR   Very Intensive IFR
Visi :
Ceiling :
>= 8 km
>= 3000ft
5 to 8 km
1000 to 3000 ft
1500m to 5 km
500 to 1000 ft
800 to 1500m
200 to 500 ft
< 800m
< 200 ft
Symbols :   Thunderstorms  Fog  Heavy snow  Heavy precipitations  Wind > 20 kt
SIGMETs :     Misc.  Thunderstorms  Icing  Turbulence  Mountain Waves  Volcanic Ashes






- Airport Elevation : 23 ft
- IATA code : XFW


EDHI - Hamburg Finkenwerder

CURRENT METAR :
  • 090320Z AUTO 20006KT 180V240 9999 // FEW054/// OVC090/// 12/07 Q1007

EXPIRED METARs :
  • 090250Z AUTO 20006KT 9999 // FEW041/// BKN092/// 12/07 Q1006
  • 090220Z AUTO 21003KT 160V250 9999 // FEW043/// OVC059/// 12/07 Q1007
  • 090150Z AUTO VRB03KT 9999 // BKN043/// OVC061/// 11/07 Q1007
  • 090120Z AUTO 12003KT 080V170 9999 // SCT044/// OVC056/// 10/07 Q1007
  • 090050Z AUTO 13004KT 100V160 9999 // SCT044/// BKN060/// OVC081/// 10/07 Q1007

Expired Forecast.



MET'MAP, your aeronautical weather chart ! - Copyright ORBIFLY December 2007 - Disclaimer

ORBIFLY MET'MAP TEAM :

Programming & Development : Alexandra Zaïnal
Concept & original design : Baudouin d'Aumeries
Assistance for programming : Marc-Olivier Méhu
Technical & hardware support : Manuel Goepfert

Contact : metmap@orbifly.com




SOURCES & CREDITS :

   NOAA